createdAt,value
2019-03-03T00:02:03.494Z,9.91
2019-03-03T00:04:33.197Z,9.94
2019-03-03T00:07:03.835Z,10.13
2019-03-03T00:09:33.551Z,10.17
2019-03-03T00:12:03.624Z,10.23
2019-03-03T00:14:33.341Z,10.12
2019-03-03T00:17:03.137Z,10.09
2019-03-03T00:19:32.743Z,10.03
2019-03-03T00:22:02.411Z,10.02
2019-03-03T00:24:32.240Z,9.93
2019-03-03T00:27:01.848Z,9.86
2019-03-03T00:29:31.649Z,9.99
2019-03-03T00:32:01.304Z,9.91
2019-03-03T00:34:33.286Z,9.89
2019-03-03T00:37:16.497Z,9.90
2019-03-03T00:40:06.113Z,10.13
2019-03-03T00:42:53.803Z,10.12
2019-03-03T00:45:40.034Z,10.16
2019-03-03T00:48:17.986Z,10.13
2019-03-03T00:50:58.077Z,10.17
2019-03-03T00:53:29.291Z,10.20
2019-03-03T00:56:03.513Z,10.16
2019-03-03T00:58:40.675Z,10.18
2019-03-03T01:01:26.783Z,10.15
2019-03-03T01:04:00.899Z,10.40
2019-03-03T01:06:39.363Z,10.08
2019-03-03T01:09:26.839Z,10.27
2019-03-03T01:12:15.474Z,10.41
2019-03-03T01:14:48.668Z,10.24
2019-03-03T01:17:28.750Z,10.37
2019-03-03T01:19:58.137Z,10.44
2019-03-03T01:22:32.178Z,10.41
2019-03-03T01:25:01.792Z,10.44
2019-03-03T01:27:31.379Z,10.52
2019-03-03T01:30:00.980Z,10.41
2019-03-03T01:32:30.573Z,10.52
2019-03-03T01:35:03.202Z,10.65
2019-03-03T01:37:32.732Z,10.59
2019-03-03T01:40:02.358Z,10.83
2019-03-03T01:42:31.907Z,11.05
2019-03-03T01:45:01.537Z,10.89
2019-03-03T01:47:31.186Z,10.64
2019-03-03T01:50:00.876Z,10.95
2019-03-03T01:52:30.374Z,11.17
2019-03-03T01:54:59.956Z,11.13
2019-03-03T01:57:29.768Z,10.94
2019-03-03T01:59:59.338Z,11.07
2019-03-03T02:02:29.218Z,11.26
2019-03-03T02:04:58.958Z,11.14
2019-03-03T02:07:28.544Z,11.20
2019-03-03T02:09:58.137Z,11.31
2019-03-03T02:12:27.763Z,11.33
2019-03-03T02:14:57.352Z,11.30
2019-03-03T02:17:29.384Z,11.27
2019-03-03T02:20:00.346Z,10.96
2019-03-03T02:22:30.029Z,11.21
2019-03-03T02:24:59.627Z,11.20
2019-03-03T02:27:29.293Z,11.25
2019-03-03T02:29:58.919Z,11.37
2019-03-03T02:32:30.223Z,11.66
2019-03-03T02:34:59.937Z,11.73
2019-03-03T02:37:29.613Z,11.63
2019-03-03T02:39:59.150Z,11.62
2019-03-03T02:42:28.931Z,11.52
2019-03-03T02:44:58.562Z,11.56
2019-03-03T02:47:28.040Z,11.56
2019-03-03T02:50:00.821Z,11.71
2019-03-03T02:52:30.582Z,11.84
2019-03-03T02:55:00.399Z,11.72
2019-03-03T02:57:30.736Z,11.46
2019-03-03T03:00:22.010Z,11.44
2019-03-03T03:02:56.399Z,11.35
2019-03-03T03:05:45.596Z,11.43
2019-03-03T03:08:34.739Z,11.35
2019-03-03T03:11:06.558Z,11.43
2019-03-03T03:13:54.235Z,11.25
2019-03-03T03:16:32.568Z,11.38
2019-03-03T03:19:21.843Z,11.38
2019-03-03T03:21:53.087Z,11.47
2019-03-03T03:24:30.273Z,11.24
2019-03-03T03:27:19.763Z,11.25
2019-03-03T03:29:52.501Z,11.31
2019-03-03T03:32:35.741Z,11.38
2019-03-03T03:35:21.780Z,11.34
2019-03-03T03:37:52.951Z,11.31
2019-03-03T03:40:31.352Z,11.28
2019-03-03T03:43:02.674Z,11.44
2019-03-03T03:45:39.541Z,11.33
2019-03-03T03:48:26.796Z,11.35
2019-03-03T03:50:58.000Z,11.11
2019-03-03T03:53:39.256Z,11.29
2019-03-03T03:56:19.186Z,11.22
2019-03-03T03:58:53.454Z,11.44
2019-03-03T04:01:27.712Z,11.65
2019-03-03T04:04:05.177Z,11.92
2019-03-03T04:06:36.359Z,11.64
2019-03-03T04:09:15.993Z,11.58
2019-03-03T04:11:49.988Z,11.63
2019-03-03T04:14:23.823Z,11.50
2019-03-03T04:17:10.657Z,11.66
2019-03-03T04:19:41.939Z,11.53
2019-03-03T04:22:31.303Z,11.15
2019-03-03T04:25:05.718Z,11.37
2019-03-03T04:27:35.037Z,11.50
2019-03-03T04:30:08.744Z,11.38
2019-03-03T04:32:48.648Z,11.31
2019-03-03T04:35:19.886Z,11.45
2019-03-03T04:38:03.154Z,11.58
2019-03-03T04:40:43.287Z,11.56
2019-03-03T04:43:14.528Z,11.50
2019-03-03T04:45:45.697Z,11.63
2019-03-03T04:48:34.634Z,11.50
2019-03-03T04:51:11.384Z,11.53
2019-03-03T04:53:54.747Z,11.72
2019-03-03T04:56:31.649Z,11.78
2019-03-03T04:59:05.287Z,11.78
2019-03-03T05:01:43.699Z,11.56
2019-03-03T05:04:18.464Z,11.56
2019-03-03T05:06:49.646Z,11.59
2019-03-03T05:09:20.852Z,11.46
2019-03-03T05:12:22.534Z,11.64
2019-03-03T05:14:53.793Z,11.71
2019-03-03T05:17:23.166Z,11.53
2019-03-03T05:19:54.387Z,11.78
2019-03-03T05:22:23.937Z,11.84
2019-03-03T05:24:53.450Z,11.57
2019-03-03T05:27:23.660Z,11.80
2019-03-03T05:29:53.195Z,11.80
2019-03-03T05:32:22.711Z,11.66
2019-03-03T05:34:52.355Z,11.66
2019-03-03T05:37:21.834Z,11.86
2019-03-03T05:39:51.474Z,12.03
2019-03-03T05:42:21.115Z,11.70
2019-03-03T05:44:50.681Z,11.85
2019-03-03T05:47:20.294Z,11.77
2019-03-03T05:49:49.888Z,11.96
2019-03-03T05:52:20.173Z,12.12
2019-03-03T05:54:49.680Z,11.98
2019-03-03T05:57:20.786Z,11.90
2019-03-03T05:59:50.391Z,11.86
2019-03-03T06:02:20.095Z,11.69
2019-03-03T06:04:49.738Z,11.64
2019-03-03T06:07:19.258Z,11.52
2019-03-03T06:09:48.782Z,11.16
2019-03-03T06:12:18.588Z,11.31
2019-03-03T06:14:48.266Z,11.14
2019-03-03T06:17:18.978Z,11.12
2019-03-03T06:19:48.581Z,11.25
2019-03-03T06:22:18.195Z,11.22
2019-03-03T06:24:47.749Z,11.19
2019-03-03T06:27:17.351Z,11.42
2019-03-03T06:29:46.908Z,11.25
2019-03-03T06:32:16.511Z,10.97
2019-03-03T06:34:46.664Z,10.87
2019-03-03T06:37:16.188Z,10.97
2019-03-03T06:39:45.722Z,11.09
2019-03-03T06:42:15.364Z,10.93
2019-03-03T06:44:44.980Z,11.19
2019-03-03T06:47:14.569Z,11.17
2019-03-03T06:49:44.703Z,11.16
2019-03-03T06:52:14.332Z,11.19
2019-03-03T06:54:44.002Z,10.81
2019-03-03T06:57:13.797Z,10.97
2019-03-03T06:59:43.373Z,10.87
2019-03-03T07:02:13.272Z,10.52
2019-03-03T07:04:42.839Z,10.70
2019-03-03T07:07:12.382Z,10.44
2019-03-03T07:09:42.156Z,10.41
2019-03-03T07:12:11.729Z,10.53
2019-03-03T07:14:41.338Z,10.62
2019-03-03T07:17:10.876Z,10.77
2019-03-03T07:19:41.544Z,10.61
2019-03-03T07:22:11.065Z,10.55
2019-03-03T07:24:41.325Z,10.39
2019-03-03T07:27:11.361Z,10.59
2019-03-03T07:29:40.961Z,10.56
2019-03-03T07:32:10.438Z,10.57
2019-03-03T07:34:40.064Z,10.57
2019-03-03T07:37:10.079Z,10.57
2019-03-03T07:39:39.635Z,10.54
2019-03-03T07:42:09.373Z,10.61
2019-03-03T07:44:40.655Z,10.77
2019-03-03T07:47:10.195Z,10.56
2019-03-03T07:49:39.860Z,10.68
2019-03-03T07:52:10.053Z,10.63
2019-03-03T07:54:39.644Z,10.83
2019-03-03T07:57:09.384Z,10.94
2019-03-03T07:59:38.933Z,11.06
2019-03-03T08:02:08.628Z,10.85
2019-03-03T08:04:38.258Z,11.02
2019-03-03T08:07:10.005Z,10.90
2019-03-03T08:09:41.096Z,11.11
2019-03-03T08:12:10.873Z,11.04
2019-03-03T08:14:40.416Z,11.30
2019-03-03T08:17:10.119Z,11.07
2019-03-03T08:19:39.637Z,11.03
2019-03-03T08:22:09.240Z,10.86
2019-03-03T08:24:39.263Z,11.04
2019-03-03T08:27:08.933Z,11.20
2019-03-03T08:29:38.951Z,11.41
2019-03-03T08:32:08.990Z,11.38
2019-03-03T08:34:40.289Z,11.29
2019-03-03T08:37:09.876Z,11.35
2019-03-03T08:39:39.450Z,11.22
2019-03-03T08:42:10.862Z,11.07
2019-03-03T08:44:42.870Z,11.22
2019-03-03T08:47:38.444Z,11.26
2019-03-03T08:50:16.898Z,11.40
2019-03-03T08:52:50.868Z,11.20
2019-03-03T08:55:22.063Z,11.48
2019-03-03T08:58:05.591Z,11.29
2019-03-03T09:00:39.815Z,11.20
2019-03-03T09:03:23.809Z,11.26
2019-03-03T09:06:04.231Z,11.35
2019-03-03T09:08:44.520Z,11.38
2019-03-03T09:11:24.708Z,11.39
2019-03-03T09:13:55.934Z,11.64
2019-03-03T09:16:27.109Z,11.67
2019-03-03T09:19:13.787Z,11.37
2019-03-03T09:21:45.064Z,11.54
2019-03-03T09:24:34.707Z,11.37
2019-03-03T09:27:21.854Z,11.44
2019-03-03T09:29:51.270Z,11.52
2019-03-03T09:32:26.248Z,11.47
2019-03-03T09:34:55.535Z,11.40
2019-03-03T09:37:39.202Z,11.54
2019-03-03T09:40:12.195Z,11.48
2019-03-03T09:42:52.298Z,11.53
2019-03-03T09:45:40.755Z,11.72
2019-03-03T09:48:17.730Z,11.71
2019-03-03T09:50:52.233Z,11.90
2019-03-03T09:53:33.728Z,11.56
2019-03-03T09:56:07.367Z,11.88
2019-03-03T09:58:47.753Z,11.78
2019-03-03T10:01:37.294Z,11.64
2019-03-03T10:04:10.430Z,11.64
2019-03-03T10:06:44.745Z,11.67
2019-03-03T10:11:58.439Z,11.65
2019-03-03T10:14:35.937Z,11.78
2019-03-03T10:17:23.991Z,11.42
2019-03-03T10:20:01.462Z,11.54
2019-03-03T10:22:38.643Z,11.54
2019-03-03T10:25:23.804Z,11.41
2019-03-03T10:28:11.713Z,11.64
2019-03-03T10:30:55.081Z,11.78
2019-03-03T10:33:43.178Z,11.90
2019-03-03T10:36:17.436Z,11.78
2019-03-03T10:38:54.165Z,12.09
2019-03-03T10:41:33.083Z,12.26
2019-03-03T10:44:10.157Z,12.35
2019-03-03T10:46:44.892Z,12.15
2019-03-03T10:49:16.258Z,12.16
2019-03-03T10:52:03.608Z,12.19
2019-03-03T10:54:40.876Z,12.21
2019-03-03T10:57:30.416Z,12.19
2019-03-03T11:00:01.724Z,12.04
2019-03-03T11:02:45.196Z,12.01
2019-03-03T11:05:33.055Z,12.16
2019-03-03T11:08:04.534Z,12.18
2019-03-03T11:10:57.359Z,12.06
2019-03-03T11:13:33.583Z,11.92
2019-03-03T11:16:05.747Z,12.12
2019-03-03T11:18:43.999Z,12.17
2019-03-03T11:21:13.404Z,12.12
2019-03-03T11:23:53.395Z,12.44
2019-03-03T11:26:42.440Z,12.75
2019-03-03T11:29:16.132Z,12.84
2019-03-03T11:31:50.126Z,12.53
2019-03-03T11:34:33.456Z,12.41
2019-03-03T11:37:04.721Z,12.74
2019-03-03T11:39:40.306Z,12.80
2019-03-03T11:42:27.419Z,12.76
2019-03-03T11:45:01.736Z,12.66
2019-03-03T11:47:49.731Z,12.83
2019-03-03T11:50:25.195Z,12.90
2019-03-03T11:52:57.485Z,12.92
2019-03-03T11:55:30.244Z,12.42
2019-03-03T11:58:07.500Z,12.48
2019-03-03T12:00:41.609Z,12.52
2019-03-03T12:03:14.691Z,12.58
2019-03-03T12:06:07.228Z,12.91
2019-03-03T12:08:38.585Z,12.92
2019-03-03T12:11:14.953Z,12.74
2019-03-03T12:13:46.923Z,13.01
2019-03-03T12:16:27.532Z,13.00
2019-03-03T12:19:02.434Z,12.84
2019-03-03T12:21:34.876Z,12.85
2019-03-03T12:24:13.795Z,12.96
2019-03-03T12:26:48.078Z,13.05
2019-03-03T12:29:34.588Z,12.87
2019-03-03T12:32:22.093Z,12.83
2019-03-03T12:34:53.548Z,13.11
2019-03-03T12:37:33.292Z,12.86
2019-03-03T12:40:05.581Z,12.61
2019-03-03T12:42:48.925Z,12.57
2019-03-03T12:45:26.168Z,12.97
2019-03-03T12:48:13.771Z,12.78
2019-03-03T12:50:51.255Z,12.90
2019-03-03T12:53:34.940Z,12.85
2019-03-03T12:56:06.210Z,12.64
2019-03-03T12:58:43.211Z,12.87
2019-03-03T13:01:14.575Z,12.85
2019-03-03T13:03:45.750Z,12.76
2019-03-03T13:06:24.100Z,12.80
2019-03-03T13:08:59.400Z,12.99
2019-03-03T13:11:37.617Z,13.02
2019-03-03T13:14:08.991Z,13.01
2019-03-03T13:16:46.121Z,12.80
2019-03-03T13:19:19.710Z,12.72
2019-03-03T13:21:59.193Z,12.56
2019-03-03T13:24:34.188Z,12.66
2019-03-03T13:27:17.158Z,12.94
2019-03-03T13:30:03.092Z,13.24
2019-03-03T13:32:37.193Z,13.04
2019-03-03T13:35:26.107Z,13.11
2019-03-03T13:38:02.838Z,12.92
2019-03-03T13:40:50.295Z,13.10
2019-03-03T13:43:20.019Z,12.95
2019-03-03T13:45:49.860Z,12.80
2019-03-03T13:48:19.603Z,13.03
2019-03-03T13:50:51.001Z,13.33
2019-03-03T13:53:20.669Z,13.13
2019-03-03T13:55:50.335Z,13.27
2019-03-03T13:58:20.008Z,13.17
2019-03-03T14:00:49.700Z,13.12
2019-03-03T14:03:19.565Z,13.01
2019-03-03T14:05:50.895Z,12.94
2019-03-03T14:08:20.557Z,12.74
2019-03-03T14:10:50.233Z,12.60
2019-03-03T14:13:19.906Z,12.97
2019-03-03T14:15:49.640Z,12.84
2019-03-03T14:18:19.538Z,12.91
2019-03-03T14:20:49.059Z,12.65
2019-03-03T14:23:18.873Z,12.85
2019-03-03T14:25:48.858Z,12.56
2019-03-03T14:28:18.657Z,12.80
2019-03-03T14:30:48.624Z,12.82
2019-03-03T14:33:18.553Z,12.77
2019-03-03T14:35:48.493Z,12.69
2019-03-03T14:38:37.542Z,12.67
2019-03-03T14:41:07.539Z,12.46
2019-03-03T14:43:37.452Z,12.55
2019-03-03T14:46:08.054Z,12.74
2019-03-03T14:48:38.403Z,12.73
2019-03-03T14:51:09.686Z,12.83
2019-03-03T14:53:39.528Z,12.68
2019-03-03T14:56:11.014Z,12.76
2019-03-03T14:58:40.832Z,12.84
2019-03-03T15:01:11.327Z,12.83
2019-03-03T15:03:42.312Z,12.85
2019-03-03T15:06:12.549Z,13.05
2019-03-03T15:08:42.793Z,13.08
2019-03-03T15:11:13.139Z,12.94
2019-03-03T15:13:43.114Z,12.87
2019-03-03T15:16:14.223Z,12.80
2019-03-03T15:18:45.784Z,12.88
2019-03-03T15:21:24.725Z,12.80
2019-03-03T15:23:48.306Z,12.55
2019-03-03T15:26:18.152Z,12.53
2019-03-03T15:28:48.468Z,12.50
2019-03-03T15:31:19.512Z,12.63
2019-03-03T15:33:51.000Z,12.78
2019-03-03T15:36:21.682Z,12.67
2019-03-03T15:38:52.046Z,12.71
2019-03-03T15:41:21.836Z,12.75
2019-03-03T15:43:53.252Z,12.54
2019-03-03T15:46:26.854Z,12.52
2019-03-03T15:48:59.988Z,12.39
2019-03-03T15:51:30.206Z,12.36
2019-03-03T15:54:00.451Z,12.43
2019-03-03T15:56:32.501Z,12.49
2019-03-03T15:59:02.489Z,12.37
2019-03-03T16:01:34.995Z,12.37
2019-03-03T16:04:05.153Z,12.59
2019-03-03T16:06:35.403Z,12.48
2019-03-03T16:09:07.747Z,12.47
2019-03-03T16:11:37.675Z,12.55
2019-03-03T16:14:07.535Z,12.65
2019-03-03T16:16:42.920Z,12.93
2019-03-03T16:19:13.001Z,12.78
2019-03-03T16:21:43.042Z,12.65
2019-03-03T16:24:13.048Z,12.53
2019-03-03T16:26:43.858Z,12.55
2019-03-03T16:29:13.823Z,12.68
2019-03-03T16:31:44.379Z,12.47
2019-03-03T16:34:14.126Z,12.56
2019-03-03T16:36:43.950Z,12.49
2019-03-03T16:39:33.060Z,12.53
2019-03-03T16:42:02.730Z,12.79
2019-03-03T16:44:32.654Z,12.60
2019-03-03T16:47:04.496Z,12.63
2019-03-03T16:49:34.277Z,12.66
2019-03-03T16:52:03.939Z,12.57
2019-03-03T16:54:34.437Z,12.51
2019-03-03T16:57:04.217Z,12.38
2019-03-03T16:59:33.980Z,12.58
2019-03-03T17:02:03.786Z,12.65
2019-03-03T17:04:35.272Z,12.56
2019-03-03T17:07:06.930Z,12.57
2019-03-03T17:09:37.365Z,12.61
2019-03-03T17:12:07.277Z,12.54
2019-03-03T17:14:36.894Z,12.49
2019-03-03T17:17:06.751Z,12.62
2019-03-03T17:19:36.425Z,12.39
2019-03-03T17:22:08.918Z,12.53
2019-03-03T17:24:38.697Z,12.39
2019-03-03T17:27:08.453Z,12.51
2019-03-03T17:29:38.168Z,12.57
2019-03-03T17:32:07.857Z,12.55
2019-03-03T17:34:37.445Z,12.61
2019-03-03T17:37:07.179Z,12.40
2019-03-03T17:39:38.911Z,12.41
2019-03-03T17:42:08.287Z,12.31
2019-03-03T17:44:41.111Z,12.39
2019-03-03T17:47:10.861Z,12.34
2019-03-03T17:49:40.457Z,12.37
2019-03-03T17:52:10.239Z,12.30
2019-03-03T17:54:39.869Z,12.54
2019-03-03T17:57:10.617Z,12.46
2019-03-03T17:59:42.305Z,12.37
2019-03-03T18:02:12.126Z,12.45
2019-03-03T18:04:41.942Z,12.33
2019-03-03T18:07:12.801Z,12.38
2019-03-03T18:09:43.482Z,12.40
2019-03-03T18:12:13.273Z,12.48
2019-03-03T18:14:43.146Z,12.31
2019-03-03T18:17:12.980Z,12.31
2019-03-03T18:19:42.771Z,12.53
2019-03-03T18:22:19.502Z,12.59
2019-03-03T18:24:49.459Z,12.45
2019-03-03T18:27:19.305Z,12.54
2019-03-03T18:29:49.242Z,12.62
2019-03-03T18:32:19.008Z,12.59
2019-03-03T18:34:51.620Z,12.52
2019-03-03T18:37:21.810Z,12.41
2019-03-03T18:39:53.210Z,12.37
2019-03-03T18:42:23.130Z,12.45
2019-03-03T18:44:52.911Z,12.55
2019-03-03T18:47:22.726Z,12.48
2019-03-03T18:49:52.485Z,12.44
2019-03-03T18:52:25.477Z,12.48
2019-03-03T18:54:55.175Z,12.42
2019-03-03T18:57:24.960Z,12.54
2019-03-03T18:59:55.542Z,12.68
2019-03-03T19:02:25.628Z,12.28
2019-03-03T19:04:55.617Z,12.52
2019-03-03T19:07:25.554Z,12.50
2019-03-03T19:09:55.395Z,12.57
2019-03-03T19:12:25.115Z,12.51
2019-03-03T19:14:56.235Z,12.45
2019-03-03T19:17:26.002Z,12.30
2019-03-03T19:19:55.661Z,12.20
2019-03-03T19:22:25.513Z,12.18
2019-03-03T19:24:55.417Z,12.15
2019-03-03T19:27:25.915Z,12.03
2019-03-03T19:29:55.823Z,12.11
2019-03-03T19:32:25.614Z,12.19
2019-03-03T19:34:55.720Z,12.07
2019-03-03T19:37:25.883Z,12.02
2019-03-03T19:39:55.788Z,12.14
2019-03-03T19:42:25.689Z,12.05
2019-03-03T19:44:55.515Z,12.11
2019-03-03T19:47:26.830Z,12.20
2019-03-03T19:49:56.813Z,12.27
2019-03-03T19:52:28.742Z,12.35
2019-03-03T19:54:58.637Z,12.29
2019-03-03T19:57:28.484Z,12.39
2019-03-03T19:59:58.381Z,12.53
2019-03-03T20:02:28.144Z,12.46
2019-03-03T20:04:58.367Z,12.52
2019-03-03T20:07:30.039Z,12.69
2019-03-03T20:09:59.780Z,12.38
2019-03-03T20:12:29.634Z,12.48
2019-03-03T20:15:01.215Z,12.33
2019-03-03T20:17:31.090Z,12.51
2019-03-03T20:20:01.590Z,12.34
2019-03-03T20:22:33.187Z,12.38
2019-03-03T20:25:03.046Z,12.22
2019-03-03T20:27:33.231Z,12.44
2019-03-03T20:30:03.393Z,12.28
2019-03-03T20:32:33.821Z,12.22
2019-03-03T20:35:03.853Z,12.34
2019-03-03T20:37:35.397Z,12.28
2019-03-03T20:40:18.176Z,12.33
2019-03-03T20:42:48.177Z,12.43
2019-03-03T20:45:28.384Z,12.42
2019-03-03T20:47:58.369Z,12.31
2019-03-03T20:50:28.176Z,12.35
2019-03-03T20:52:58.035Z,12.41
2019-03-03T20:55:30.607Z,12.49
2019-03-03T20:58:01.070Z,12.21
2019-03-03T21:00:35.279Z,12.34
2019-03-03T21:03:05.295Z,12.30
2019-03-03T21:05:36.503Z,12.31
2019-03-03T21:08:07.627Z,12.39
2019-03-03T21:10:38.343Z,12.19
2019-03-03T21:13:08.034Z,12.28
2019-03-03T21:15:37.899Z,12.16
2019-03-03T21:18:07.999Z,12.27
2019-03-03T21:20:38.532Z,12.53
2019-03-03T21:23:08.319Z,12.39
2019-03-03T21:25:38.678Z,12.47
2019-03-03T21:28:08.682Z,12.19
2019-03-03T21:30:38.454Z,12.40
2019-03-03T21:33:08.546Z,12.41
2019-03-03T21:35:40.032Z,12.42
2019-03-03T21:38:10.134Z,12.32
2019-03-03T21:40:40.918Z,12.45
2019-03-03T21:43:10.836Z,12.40
2019-03-03T21:45:42.599Z,12.40
2019-03-03T21:48:12.439Z,12.37
2019-03-03T21:50:42.495Z,12.15
2019-03-03T21:53:14.285Z,12.26
2019-03-03T21:55:44.342Z,12.34
2019-03-03T21:58:14.305Z,12.38
2019-03-03T22:00:44.908Z,12.35
2019-03-03T22:03:14.982Z,12.28
2019-03-03T22:05:45.458Z,12.50
2019-03-03T22:08:15.309Z,12.35
2019-03-03T22:10:45.244Z,12.36
2019-03-03T22:13:15.181Z,12.36
2019-03-03T22:15:45.077Z,12.39
2019-03-03T22:18:16.324Z,12.30
2019-03-03T22:20:50.403Z,12.16
2019-03-03T22:23:20.276Z,12.13
2019-03-03T22:25:50.726Z,12.07
2019-03-03T22:28:20.850Z,11.99
2019-03-03T22:30:50.876Z,12.31
2019-03-03T22:33:22.109Z,12.50
2019-03-03T22:35:52.628Z,12.33
2019-03-03T22:38:22.413Z,12.06
2019-03-03T22:40:52.560Z,12.19
2019-03-03T22:43:22.261Z,12.25
2019-03-03T22:45:51.874Z,12.31
2019-03-03T22:48:21.480Z,12.34
2019-03-03T22:50:51.174Z,12.49
2019-03-03T22:53:20.800Z,12.61
2019-03-03T22:55:51.138Z,12.34
2019-03-03T22:58:20.987Z,12.33
2019-03-03T23:01:05.184Z,12.42
2019-03-03T23:04:01.905Z,12.30
2019-03-03T23:06:36.415Z,12.36
2019-03-03T23:09:17.360Z,12.27
2019-03-03T23:12:04.830Z,12.22
2019-03-03T23:14:50.328Z,12.24
2019-03-03T23:17:41.422Z,12.34
2019-03-03T23:20:24.886Z,12.27
2019-03-03T23:23:17.957Z,12.32
2019-03-03T23:25:52.773Z,12.46
2019-03-03T23:28:23.183Z,12.44
2019-03-03T23:30:54.196Z,12.41
2019-03-03T23:33:24.068Z,12.38
2019-03-03T23:35:53.767Z,12.63
2019-03-03T23:38:23.523Z,12.46
2019-03-03T23:40:53.762Z,12.44
2019-03-03T23:43:23.538Z,12.48
2019-03-03T23:45:53.155Z,12.69
2019-03-03T23:48:22.762Z,12.74
2019-03-03T23:50:52.438Z,12.65
2019-03-03T23:53:22.352Z,12.63
2019-03-03T23:55:55.276Z,12.82
2019-03-03T23:58:24.976Z,12.70
